Guajeru, Brazil
Current Conditions -  °F | °C
As of 5:00 PM on Friday 19 Dec 2014 (Local Time) from SBQV Reporting Station
Broken Clouds Broken Clouds  
Wind Chill: 77°   Ceiling: 7000
Heat Index: 78°   Visibility: 6mi
Dew Point: 72°   Wind: 3mph
Humidity: 83%   Direction: 330°NNW
Pressure: 29.97"   Gusts: NA
Location:  14.55°S, 41.94°W
Report Text: SBQV 192000Z 33003KT 9999 SCT016 BKN070 25/22 Q1015
Loading
Personal Weather Stations






























Interactive Weather Map New forecast layout! Learn more

10-Day Weather Forecast

Advertisements
Track Severe Weather on mobile